sensor_id;sensor_type;location;lat;lon;timestamp;pressure;altitude;pressure_sealevel;temperature;humidity
67727;BME280;54525;55.680;37.540;2022-09-09T00:00:53;100110.41;;;17.68;45.26
67727;BME280;54525;55.680;37.540;2022-09-09T00:03:25;100114.91;;;17.68;45.53
67727;BME280;54525;55.680;37.540;2022-09-09T00:14:54;100124.09;;;17.65;45.18
67727;BME280;54525;55.680;37.540;2022-09-09T00:20:43;100121.88;;;17.61;45.07
67727;BME280;54525;55.680;37.540;2022-09-09T00:23:17;100117.34;;;17.61;45.15
67727;BME280;54525;55.680;37.540;2022-09-09T00:28:27;100116.53;;;17.61;45.06
67727;BME280;54525;55.680;37.540;2022-09-09T00:30:55;100122.88;;;17.60;45.07
67727;BME280;54525;55.680;37.540;2022-09-09T00:33:24;100121.00;;;17.60;45.02
67727;BME280;54525;55.680;37.540;2022-09-09T00:35:53;100135.25;;;17.61;45.20
67727;BME280;54525;55.680;37.540;2022-09-09T00:38:24;100132.56;;;17.61;45.14
67727;BME280;54525;55.680;37.540;2022-09-09T00:43:38;100133.69;;;17.58;44.97
67727;BME280;54525;55.680;37.540;2022-09-09T00:46:30;100132.06;;;17.57;44.97
67727;BME280;54525;55.680;37.540;2022-09-09T00:52:29;100139.38;;;17.55;44.72
67727;BME280;54525;55.680;37.540;2022-09-09T00:57:35;100137.69;;;17.54;44.93
67727;BME280;54525;55.680;37.540;2022-09-09T01:00:29;100140.38;;;17.54;44.65
67727;BME280;54525;55.680;37.540;2022-09-09T01:05:54;100150.22;;;17.53;44.87
67727;BME280;54525;55.680;37.540;2022-09-09T01:08:36;100151.22;;;17.52;45.04
67727;BME280;54525;55.680;37.540;2022-09-09T01:11:10;100151.38;;;17.51;45.01
67727;BME280;54525;55.680;37.540;2022-09-09T01:13:42;100153.88;;;17.52;44.86
67727;BME280;54525;55.680;37.540;2022-09-09T01:16:12;100155.72;;;17.52;44.53
67727;BME280;54525;55.680;37.540;2022-09-09T01:18:43;100151.22;;;17.52;44.51
67727;BME280;54525;55.680;37.540;2022-09-09T01:21:20;100158.41;;;17.52;44.54
67727;BME280;54525;55.680;37.540;2022-09-09T01:26:39;100158.53;;;17.50;44.81
67727;BME280;54525;55.680;37.540;2022-09-09T01:29:12;100162.06;;;17.51;44.81
67727;BME280;54525;55.680;37.540;2022-09-09T01:34:16;100175.59;;;17.49;44.70
67727;BME280;54525;55.680;37.540;2022-09-09T01:36:48;100169.25;;;17.50;44.72
67727;BME280;54525;55.680;37.540;2022-09-09T01:39:16;100178.28;;;17.49;44.60
67727;BME280;54525;55.680;37.540;2022-09-09T01:41:42;100173.75;;;17.50;44.93
67727;BME280;54525;55.680;37.540;2022-09-09T01:44:08;100171.38;;;17.47;44.78
67727;BME280;54525;55.680;37.540;2022-09-09T01:46:35;100178.41;;;17.48;44.66
67727;BME280;54525;55.680;37.540;2022-09-09T01:49:02;100182.78;;;17.49;44.90
67727;BME280;54525;55.680;37.540;2022-09-09T01:51:29;100190.97;;;17.47;44.83
67727;BME280;54525;55.680;37.540;2022-09-09T01:53:55;100182.94;;;17.47;44.94
67727;BME280;54525;55.680;37.540;2022-09-09T01:56:55;100183.06;;;17.46;44.84
67727;BME280;54525;55.680;37.540;2022-09-09T02:04:50;100196.22;;;17.39;44.94
67727;BME280;54525;55.680;37.540;2022-09-09T02:07:22;100195.22;;;17.40;44.82
67727;BME280;54525;55.680;37.540;2022-09-09T02:10:01;100194.38;;;17.39;44.77
67727;BME280;54525;55.680;37.540;2022-09-09T02:12:28;100195.09;;;17.42;45.19
67727;BME280;54525;55.680;37.540;2022-09-09T02:15:00;100199.56;;;17.41;45.21
67727;BME280;54525;55.680;37.540;2022-09-09T02:17:32;100202.94;;;17.43;44.80
67727;BME280;54525;55.680;37.540;2022-09-09T02:20:08;100202.09;;;17.43;44.48
67727;BME280;54525;55.680;37.540;2022-09-09T02:22:35;100204.75;;;17.43;44.76
67727;BME280;54525;55.680;37.540;2022-09-09T02:25:07;100203.94;;;17.42;44.66
67727;BME280;54525;55.680;37.540;2022-09-09T02:27:33;100206.44;;;17.44;44.91
67727;BME280;54525;55.680;37.540;2022-09-09T02:30:00;100209.13;;;17.44;44.82
67727;BME280;54525;55.680;37.540;2022-09-09T02:32:28;100208.13;;;17.45;44.56
67727;BME280;54525;55.680;37.540;2022-09-09T02:35:03;100210.69;;;17.46;44.63
67727;BME280;54525;55.680;37.540;2022-09-09T02:37:35;100219.41;;;17.48;44.70
67727;BME280;54525;55.680;37.540;2022-09-09T02:40:05;100227.28;;;17.50;45.10
67727;BME280;54525;55.680;37.540;2022-09-09T02:42:31;100213.19;;;17.48;45.24
67727;BME280;54525;55.680;37.540;2022-09-09T02:44:57;100221.09;;;17.49;45.05
67727;BME280;54525;55.680;37.540;2022-09-09T02:47:34;100221.91;;;17.50;45.24
67727;BME280;54525;55.680;37.540;2022-09-09T02:50:25;100225.59;;;17.49;45.18
67727;BME280;54525;55.680;37.540;2022-09-09T02:53:02;100230.94;;;17.49;45.29
67727;BME280;54525;55.680;37.540;2022-09-09T02:55:39;100237.16;;;17.49;44.95
67727;BME280;54525;55.680;37.540;2022-09-09T02:58:10;100233.63;;;17.49;44.96
67727;BME280;54525;55.680;37.540;2022-09-09T03:00:37;100247.00;;;17.49;45.11
67727;BME280;54525;55.680;37.540;2022-09-09T03:03:05;100233.63;;;17.49;45.33
67727;BME280;54525;55.680;37.540;2022-09-09T03:05:31;100231.09;;;17.47;45.18
67727;BME280;54525;55.680;37.540;2022-09-09T03:07:57;100244.47;;;17.47;45.11
67727;BME280;54525;55.680;37.540;2022-09-09T03:10:23;100247.16;;;17.47;45.06
67727;BME280;54525;55.680;37.540;2022-09-09T03:12:49;100244.59;;;17.46;45.21
67727;BME280;54525;55.680;37.540;2022-09-09T03:15:15;100248.97;;;17.47;45.26
67727;BME280;54525;55.680;37.540;2022-09-09T03:17:41;100248.13;;;17.46;45.25
67727;BME280;54525;55.680;37.540;2022-09-09T03:20:07;100240.25;;;17.45;45.05
67727;BME280;54525;55.680;37.540;2022-09-09T03:22:33;100245.59;;;17.45;45.18
67727;BME280;54525;55.680;37.540;2022-09-09T03:24:59;100242.91;;;17.45;45.37
67727;BME280;54525;55.680;37.540;2022-09-09T03:27:25;100254.59;;;17.44;45.39
67727;BME280;54525;55.680;37.540;2022-09-09T03:29:50;100261.66;;;17.45;45.35
67727;BME280;54525;55.680;37.540;2022-09-09T03:32:17;100255.47;;;17.44;45.07
67727;BME280;54525;55.680;37.540;2022-09-09T03:34:43;100257.28;;;17.44;45.21
67727;BME280;54525;55.680;37.540;2022-09-09T03:37:09;100262.50;;;17.45;45.03
67727;BME280;54525;55.680;37.540;2022-09-09T03:39:34;100261.66;;;17.45;44.93
67727;BME280;54525;55.680;37.540;2022-09-09T03:42:00;100270.66;;;17.44;45.00
67727;BME280;54525;55.680;37.540;2022-09-09T03:44:29;100265.31;;;17.44;44.98
67727;BME280;54525;55.680;37.540;2022-09-09T03:46:54;100272.34;;;17.45;44.85
67727;BME280;54525;55.680;37.540;2022-09-09T03:49:20;100276.88;;;17.44;44.91
67727;BME280;54525;55.680;37.540;2022-09-09T03:51:47;100280.25;;;17.46;44.75
67727;BME280;54525;55.680;37.540;2022-09-09T03:54:12;100277.56;;;17.46;44.63
67727;BME280;54525;55.680;37.540;2022-09-09T03:56:38;100278.41;;;17.47;44.61
67727;BME280;54525;55.680;37.540;2022-09-09T03:59:04;100281.06;;;17.47;44.60
67727;BME280;54525;55.680;37.540;2022-09-09T04:01:29;100280.94;;;17.48;44.32
67727;BME280;54525;55.680;37.540;2022-09-09T04:03:55;100294.31;;;17.48;44.73
67727;BME280;54525;55.680;37.540;2022-09-09T04:06:24;100279.09;;;17.49;44.54
67727;BME280;54525;55.680;37.540;2022-09-09T04:08:49;100284.28;;;17.50;44.30
67727;BME280;54525;55.680;37.540;2022-09-09T04:11:16;100285.16;;;17.51;44.21
67727;BME280;54525;55.680;37.540;2022-09-09T04:13:41;100289.50;;;17.52;43.99
67727;BME280;54525;55.680;37.540;2022-09-09T04:16:09;100283.88;;;17.55;43.79
67727;BME280;54525;55.680;37.540;2022-09-09T04:18:35;100291.91;;;17.55;43.67
67727;BME280;54525;55.680;37.540;2022-09-09T04:21:01;100283.72;;;17.57;43.57
67727;BME280;54525;55.680;37.540;2022-09-09T04:23:27;100301.59;;;17.56;43.33
67727;BME280;54525;55.680;37.540;2022-09-09T04:25:58;100291.72;;;17.57;43.33
67727;BME280;54525;55.680;37.540;2022-09-09T04:28:26;100296.78;;;17.60;43.35
67727;BME280;54525;55.680;37.540;2022-09-09T04:30:52;100297.63;;;17.60;43.35
67727;BME280;54525;55.680;37.540;2022-09-09T04:33:18;100286.91;;;17.60;42.91
67727;BME280;54525;55.680;37.540;2022-09-09T04:35:46;100282.44;;;17.61;42.95
67727;BME280;54525;55.680;37.540;2022-09-09T04:38:13;100294.13;;;17.60;43.14
67727;BME280;54525;55.680;37.540;2022-09-09T04:40:38;100295.94;;;17.59;43.04
67727;BME280;54525;55.680;37.540;2022-09-09T04:43:08;100296.78;;;17.60;43.24
67727;BME280;54525;55.680;37.540;2022-09-09T04:45:34;100299.31;;;17.61;43.20
67727;BME280;54525;55.680;37.540;2022-09-09T04:48:00;100298.31;;;17.62;43.11
67727;BME280;54525;55.680;37.540;2022-09-09T04:50:25;100296.50;;;17.63;43.02
67727;BME280;54525;55.680;37.540;2022-09-09T04:52:51;100302.69;;;17.63;42.96
67727;BME280;54525;55.680;37.540;2022-09-09T04:55:16;100303.38;;;17.65;42.70
67727;BME280;54525;55.680;37.540;2022-09-09T04:57:42;100301.69;;;17.64;42.81
67727;BME280;54525;55.680;37.540;2022-09-09T05:00:08;100307.75;;;17.66;42.83
67727;BME280;54525;55.680;37.540;2022-09-09T05:02:38;100309.56;;;17.66;43.14
67727;BME280;54525;55.680;37.540;2022-09-09T05:05:04;100306.88;;;17.66;42.91
67727;BME280;54525;55.680;37.540;2022-09-09T05:07:30;100313.09;;;17.66;43.18
67727;BME280;54525;55.680;37.540;2022-09-09T05:09:56;100314.66;;;17.87;42.55
67727;BME280;54525;55.680;37.540;2022-09-09T05:12:22;100313.03;;;18.32;41.46
67727;BME280;54525;55.680;37.540;2022-09-09T05:14:49;100319.66;;;18.82;39.76
67727;BME280;54525;55.680;37.540;2022-09-09T05:17:15;100322.94;;;19.20;39.07
67727;BME280;54525;55.680;37.540;2022-09-09T05:19:41;100327.13;;;19.41;38.58
67727;BME280;54525;55.680;37.540;2022-09-09T05:22:07;100321.16;;;19.56;38.69
67727;BME280;54525;55.680;37.540;2022-09-09T05:24:32;100320.16;;;19.65;38.64
67727;BME280;54525;55.680;37.540;2022-09-09T05:26:58;100332.34;;;19.77;38.68
67727;BME280;54525;55.680;37.540;2022-09-09T05:29:26;100327.03;;;19.94;38.42
67727;BME280;54525;55.680;37.540;2022-09-09T05:31:52;100326.72;;;19.97;38.58
67727;BME280;54525;55.680;37.540;2022-09-09T05:34:18;100328.69;;;19.87;38.92
67727;BME280;54525;55.680;37.540;2022-09-09T05:36:43;100322.22;;;19.71;39.21
67727;BME280;54525;55.680;37.540;2022-09-09T05:39:09;100328.63;;;19.44;40.19
67727;BME280;54525;55.680;37.540;2022-09-09T05:41:34;100330.88;;;19.22;40.38
67727;BME280;54525;55.680;37.540;2022-09-09T05:44:01;100320.53;;;19.09;40.83
67727;BME280;54525;55.680;37.540;2022-09-09T05:46:26;100334.59;;;19.03;40.69
67727;BME280;54525;55.680;37.540;2022-09-09T05:48:53;100329.84;;;18.97;40.74
67727;BME280;54525;55.680;37.540;2022-09-09T05:51:24;100327.44;;;18.94;40.78
67727;BME280;54525;55.680;37.540;2022-09-09T05:53:50;100335.97;;;18.89;40.71
67727;BME280;54525;55.680;37.540;2022-09-09T05:56:23;100328.09;;;18.87;40.50
67727;BME280;54525;55.680;37.540;2022-09-09T05:58:53;100336.44;;;18.84;40.42
67727;BME280;54525;55.680;37.540;2022-09-09T06:01:30;100340.28;;;18.82;40.31
67727;BME280;54525;55.680;37.540;2022-09-09T06:03:56;100336.91;;;18.80;40.33
67727;BME280;54525;55.680;37.540;2022-09-09T06:06:27;100337.22;;;18.76;40.19
67727;BME280;54525;55.680;37.540;2022-09-09T06:08:57;100334.66;;;18.75;40.18
67727;BME280;54525;55.680;37.540;2022-09-09T06:11:30;100339.50;;;18.71;40.05
67727;BME280;54525;55.680;37.540;2022-09-09T06:13:56;100346.03;;;18.69;39.84
67727;BME280;54525;55.680;37.540;2022-09-09T06:16:24;100340.97;;;18.66;39.66
67727;BME280;54525;55.680;37.540;2022-09-09T06:18:50;100342.94;;;18.64;40.06
67727;BME280;54525;55.680;37.540;2022-09-09T06:21:29;100351.97;;;18.63;39.94
67727;BME280;54525;55.680;37.540;2022-09-09T06:24:10;100344.09;;;18.61;40.31
67727;BME280;54525;55.680;37.540;2022-09-09T06:26:44;100350.28;;;18.61;40.59
67727;BME280;54525;55.680;37.540;2022-09-09T06:29:11;100358.50;;;18.60;40.49
67727;BME280;54525;55.680;37.540;2022-09-09T06:31:37;100351.44;;;18.59;40.67
67727;BME280;54525;55.680;37.540;2022-09-09T06:34:06;100358.66;;;18.58;40.98
67727;BME280;54525;55.680;37.540;2022-09-09T06:36:35;100356.97;;;18.57;41.21
67727;BME280;54525;55.680;37.540;2022-09-09T06:39:02;100354.31;;;18.57;41.08
67727;BME280;54525;55.680;37.540;2022-09-09T06:41:35;100362.34;;;18.57;41.42
67727;BME280;54525;55.680;37.540;2022-09-09T06:44:07;100365.84;;;18.58;41.24
67727;BME280;54525;55.680;37.540;2022-09-09T06:46:33;100362.88;;;18.61;41.09
67727;BME280;54525;55.680;37.540;2022-09-09T06:49:01;100371.06;;;18.59;41.00
67727;BME280;54525;55.680;37.540;2022-09-09T06:51:30;100371.06;;;18.59;41.25
67727;BME280;54525;55.680;37.540;2022-09-09T06:53:57;100369.22;;;18.60;41.23
67727;BME280;54525;55.680;37.540;2022-09-09T06:56:26;100374.41;;;18.61;40.91
67727;BME280;54525;55.680;37.540;2022-09-09T06:58:54;100382.16;;;18.65;40.16
67727;BME280;54525;55.680;37.540;2022-09-09T07:01:25;100383.00;;;18.65;40.08
67727;BME280;54525;55.680;37.540;2022-09-09T07:03:54;100388.38;;;18.65;40.22
67727;BME280;54525;55.680;37.540;2022-09-09T07:06:25;100377.31;;;18.68;40.10
67727;BME280;54525;55.680;37.540;2022-09-09T07:08:52;100381.84;;;18.68;39.85
67727;BME280;54525;55.680;37.540;2022-09-09T07:11:20;100378.19;;;18.69;39.59
67727;BME280;54525;55.680;37.540;2022-09-09T07:13:46;100374.50;;;18.70;39.43
67727;BME280;54525;55.680;37.540;2022-09-09T07:16:17;100384.94;;;18.73;39.37
67727;BME280;54525;55.680;37.540;2022-09-09T07:18:43;100387.44;;;18.74;39.07
67727;BME280;54525;55.680;37.540;2022-09-09T07:21:11;100386.28;;;18.77;39.49
67727;BME280;54525;55.680;37.540;2022-09-09T07:23:40;100383.59;;;18.77;39.34
67727;BME280;54525;55.680;37.540;2022-09-09T07:26:16;100404.75;;;18.80;39.17
67727;BME280;54525;55.680;37.540;2022-09-09T07:28:42;100394.03;;;18.80;39.44
67727;BME280;54525;55.680;37.540;2022-09-09T07:31:19;100394.72;;;18.82;39.18
67727;BME280;54525;55.680;37.540;2022-09-09T07:33:45;100397.25;;;18.84;38.75
67727;BME280;54525;55.680;37.540;2022-09-09T07:39:16;100404.00;;;18.88;38.45
67727;BME280;54525;55.680;37.540;2022-09-09T07:41:45;100413.72;;;18.89;38.51
67727;BME280;54525;55.680;37.540;2022-09-09T07:44:13;100416.41;;;18.89;38.73
67727;BME280;54525;55.680;37.540;2022-09-09T07:46:40;100423.63;;;18.88;38.46
67727;BME280;54525;55.680;37.540;2022-09-09T07:49:07;100423.44;;;18.90;38.40
67727;BME280;54525;55.680;37.540;2022-09-09T07:51:45;100417.91;;;18.91;38.41
67727;BME280;54525;55.680;37.540;2022-09-09T07:54:12;100426.66;;;18.94;38.44
67727;BME280;54525;55.680;37.540;2022-09-09T07:56:39;100415.25;;;18.91;38.40
67727;BME280;54525;55.680;37.540;2022-09-09T07:59:06;100426.81;;;18.92;38.40
67727;BME280;54525;55.680;37.540;2022-09-09T08:01:35;100433.03;;;18.92;38.52
67727;BME280;54525;55.680;37.540;2022-09-09T08:04:15;100433.34;;;18.89;38.45
67727;BME280;54525;55.680;37.540;2022-09-09T08:06:43;100435.88;;;18.91;38.73
67727;BME280;54525;55.680;37.540;2022-09-09T08:09:09;100429.66;;;18.90;38.79
67727;BME280;54525;55.680;37.540;2022-09-09T08:11:35;100432.31;;;18.90;38.58
67727;BME280;54525;55.680;37.540;2022-09-09T08:14:02;100435.00;;;18.90;38.46
67727;BME280;54525;55.680;37.540;2022-09-09T08:16:31;100432.50;;;18.89;38.34
67727;BME280;54525;55.680;37.540;2022-09-09T08:18:57;100439.53;;;18.90;38.87
67727;BME280;54525;55.680;37.540;2022-09-09T08:21:27;100423.44;;;18.90;38.99
67727;BME280;54525;55.680;37.540;2022-09-09T08:23:54;100436.69;;;18.91;38.67
67727;BME280;54525;55.680;37.540;2022-09-09T08:28:51;100435.59;;;18.94;38.36
67727;BME280;54525;55.680;37.540;2022-09-09T08:31:28;100440.06;;;18.94;38.39
67727;BME280;54525;55.680;37.540;2022-09-09T08:33:55;100447.41;;;18.91;38.47
67727;BME280;54525;55.680;37.540;2022-09-09T08:36:23;100443.06;;;18.90;38.60
67727;BME280;54525;55.680;37.540;2022-09-09T08:38:50;100446.75;;;18.89;38.40
67727;BME280;54525;55.680;37.540;2022-09-09T08:50:18;100441.06;;;18.92;38.83
67727;BME280;54525;55.680;37.540;2022-09-09T08:57:54;100436.16;;;18.88;38.96
67727;BME280;54525;55.680;37.540;2022-09-09T09:00:21;100451.97;;;18.91;38.29
67727;BME280;54525;55.680;37.540;2022-09-09T09:03:05;100454.47;;;18.92;38.45
67727;BME280;54525;55.680;37.540;2022-09-09T09:05:41;100454.47;;;18.92;38.37
67727;BME280;54525;55.680;37.540;2022-09-09T09:11:03;100458.84;;;18.94;38.93
67727;BME280;54525;55.680;37.540;2022-09-09T09:13:54;100459.84;;;18.92;38.66
67727;BME280;54525;55.680;37.540;2022-09-09T09:18:58;100452.50;;;18.95;39.06
67727;BME280;54525;55.680;37.540;2022-09-09T09:21:41;100451.34;;;18.97;39.15
67727;BME280;54525;55.680;37.540;2022-09-09T09:27:18;100445.84;;;18.99;39.50
67727;BME280;54525;55.680;37.540;2022-09-09T09:30:31;100447.69;;;18.98;39.03
67727;BME280;54525;55.680;37.540;2022-09-09T09:33:08;100450.53;;;18.97;38.64
67727;BME280;54525;55.680;37.540;2022-09-09T09:35:37;100448.84;;;18.96;38.53
67727;BME280;54525;55.680;37.540;2022-09-09T09:38:16;100453.22;;;18.97;38.68
67727;BME280;54525;55.680;37.540;2022-09-09T09:40:50;100456.06;;;18.95;39.09
67727;BME280;54525;55.680;37.540;2022-09-09T09:43:26;100449.09;;;18.92;39.11
67727;BME280;54525;55.680;37.540;2022-09-09T09:46:05;100452.66;;;18.93;39.52
67727;BME280;54525;55.680;37.540;2022-09-09T09:48:42;100448.13;;;18.94;39.37
67727;BME280;54525;55.680;37.540;2022-09-09T09:51:10;100438.97;;;18.96;39.13
67727;BME280;54525;55.680;37.540;2022-09-09T09:53:39;100442.31;;;18.98;39.25
67727;BME280;54525;55.680;37.540;2022-09-09T09:56:06;100438.63;;;18.99;39.23
67727;BME280;54525;55.680;37.540;2022-09-09T10:01:02;100446.56;;;19.01;38.96
67727;BME280;54525;55.680;37.540;2022-09-09T10:03:31;100436.81;;;19.00;39.03
67727;BME280;54525;55.680;37.540;2022-09-09T10:05:57;100448.25;;;19.02;39.67
67727;BME280;54525;55.680;37.540;2022-09-09T10:08:26;100451.75;;;19.02;39.22
67727;BME280;54525;55.680;37.540;2022-09-09T10:11:06;100455.13;;;19.04;38.64
67727;BME280;54525;55.680;37.540;2022-09-09T10:13:51;100448.75;;;19.05;38.67
67727;BME280;54525;55.680;37.540;2022-09-09T10:19:13;100455.66;;;19.08;39.10
67727;BME280;54525;55.680;37.540;2022-09-09T10:27:28;100454.66;;;19.09;39.03
67727;BME280;54525;55.680;37.540;2022-09-09T10:30:18;100449.47;;;19.08;38.99
67727;BME280;54525;55.680;37.540;2022-09-09T10:33:04;100454.97;;;19.06;39.05
67727;BME280;54525;55.680;37.540;2022-09-09T10:35:53;100464.84;;;19.05;38.93
67727;BME280;54525;55.680;37.540;2022-09-09T10:38:42;100468.38;;;19.06;38.92
67727;BME280;54525;55.680;37.540;2022-09-09T10:41:16;100462.00;;;19.07;39.41
67727;BME280;54525;55.680;37.540;2022-09-09T10:54:21;100456.44;;;19.18;40.17
67727;BME280;54525;55.680;37.540;2022-09-09T10:57:03;100451.91;;;19.19;40.62
67727;BME280;54525;55.680;37.540;2022-09-09T10:59:47;100455.41;;;19.19;40.42
67727;BME280;54525;55.680;37.540;2022-09-09T11:02:27;100451.91;;;19.19;39.42
67727;BME280;54525;55.680;37.540;2022-09-09T11:04:58;100453.59;;;19.20;39.91
67727;BME280;54525;55.680;37.540;2022-09-09T11:07:41;100461.63;;;19.20;39.61
67727;BME280;54525;55.680;37.540;2022-09-09T11:12:57;100452.41;;;19.23;40.71
67727;BME280;54525;55.680;37.540;2022-09-09T11:15:39;100452.41;;;19.23;40.17
67727;BME280;54525;55.680;37.540;2022-09-09T11:18:11;100446.06;;;19.24;39.97
67727;BME280;54525;55.680;37.540;2022-09-09T11:20:39;100452.41;;;19.23;39.17
67727;BME280;54525;55.680;37.540;2022-09-09T11:25:40;100456.66;;;19.25;38.90
67727;BME280;54525;55.680;37.540;2022-09-09T11:31:00;100464.16;;;19.21;39.90
67727;BME280;54525;55.680;37.540;2022-09-09T11:44:29;100457.78;;;19.23;39.50
67727;BME280;54525;55.680;37.540;2022-09-09T11:46:55;100450.44;;;19.25;39.24
67727;BME280;54525;55.680;37.540;2022-09-09T11:49:41;100454.97;;;19.24;39.76
67727;BME280;54525;55.680;37.540;2022-09-09T11:53:02;100452.13;;;19.26;39.29
67727;BME280;54525;55.680;37.540;2022-09-09T11:54:56;100448.59;;;19.25;39.81
67727;BME280;54525;55.680;37.540;2022-09-09T11:57:34;100460.84;;;19.28;39.48
67727;BME280;54525;55.680;37.540;2022-09-09T12:00:00;100449.25;;;19.27;39.19
67727;BME280;54525;55.680;37.540;2022-09-09T12:02:28;100450.13;;;19.28;39.77
67727;BME280;54525;55.680;37.540;2022-09-09T12:05:08;100456.31;;;19.28;40.27
67727;BME280;54525;55.680;37.540;2022-09-09T12:07:40;100449.13;;;19.29;39.70
67727;BME280;54525;55.680;37.540;2022-09-09T12:12:38;100443.59;;;19.30;39.95
67727;BME280;54525;55.680;37.540;2022-09-09T12:17:41;100448.13;;;19.30;39.29
67727;BME280;54525;55.680;37.540;2022-09-09T12:28:38;100448.59;;;19.25;37.92
67727;BME280;54525;55.680;37.540;2022-09-09T12:33:43;100449.75;;;19.23;38.62
67727;BME280;54525;55.680;37.540;2022-09-09T12:36:19;100458.66;;;19.23;38.80
67727;BME280;54525;55.680;37.540;2022-09-09T12:38:46;100445.38;;;19.21;38.09
67727;BME280;54525;55.680;37.540;2022-09-09T12:41:23;100450.59;;;19.23;38.02
67727;BME280;54525;55.680;37.540;2022-09-09T12:43:50;100450.72;;;19.21;38.70
67727;BME280;54525;55.680;37.540;2022-09-09T12:46:38;100450.59;;;19.23;39.72
67727;BME280;54525;55.680;37.540;2022-09-09T12:49:05;100451.44;;;19.24;39.65
67727;BME280;54525;55.680;37.540;2022-09-09T12:51:49;100448.91;;;19.22;39.78
67727;BME280;54525;55.680;37.540;2022-09-09T12:54:15;100450.59;;;19.23;39.49
67727;BME280;54525;55.680;37.540;2022-09-09T12:56:45;100441.56;;;19.24;39.50
67727;BME280;54525;55.680;37.540;2022-09-09T12:59:38;100438.00;;;19.24;39.79
67727;BME280;54525;55.680;37.540;2022-09-09T13:02:19;100449.59;;;19.24;39.58
67727;BME280;54525;55.680;37.540;2022-09-09T13:04:45;100448.06;;;19.21;39.62
67727;BME280;54525;55.680;37.540;2022-09-09T13:07:13;100444.38;;;19.23;40.06
67727;BME280;54525;55.680;37.540;2022-09-09T13:09:39;100438.00;;;19.24;39.59
67727;BME280;54525;55.680;37.540;2022-09-09T13:12:13;100446.06;;;19.24;39.50
67727;BME280;54525;55.680;37.540;2022-09-09T13:14:43;100439.00;;;19.23;39.23
67727;BME280;54525;55.680;37.540;2022-09-09T13:17:21;100443.53;;;19.22;39.36
67727;BME280;54525;55.680;37.540;2022-09-09T13:19:47;100448.91;;;19.22;39.16
67727;BME280;54525;55.680;37.540;2022-09-09T13:22:37;100453.28;;;19.23;39.05
67727;BME280;54525;55.680;37.540;2022-09-09T13:27:37;100448.06;;;19.21;38.64
67727;BME280;54525;55.680;37.540;2022-09-09T13:30:54;100453.59;;;19.20;38.13
67727;BME280;54525;55.680;37.540;2022-09-09T13:33:22;100451.22;;;19.17;39.05
67727;BME280;54525;55.680;37.540;2022-09-09T13:35:54;100454.59;;;19.19;39.93
67727;BME280;54525;55.680;37.540;2022-09-09T13:38:21;100452.06;;;19.17;40.20
67727;BME280;54525;55.680;37.540;2022-09-09T13:41:03;100450.22;;;19.18;39.66
67727;BME280;54525;55.680;37.540;2022-09-09T13:43:38;100449.38;;;19.17;40.48
67727;BME280;54525;55.680;37.540;2022-09-09T13:46:35;100449.50;;;19.16;40.25
67727;BME280;54525;55.680;37.540;2022-09-09T13:49:22;100456.56;;;19.17;40.93
67727;BME280;54525;55.680;37.540;2022-09-09T13:51:49;100451.38;;;19.15;40.62
67727;BME280;54525;55.680;37.540;2022-09-09T13:54:18;100443.31;;;19.15;40.88
67727;BME280;54525;55.680;37.540;2022-09-09T13:56:45;100443.31;;;19.15;40.51
67727;BME280;54525;55.680;37.540;2022-09-09T13:59:16;100446.84;;;19.16;40.47
67727;BME280;54525;55.680;37.540;2022-09-09T14:01:42;100446.69;;;19.17;39.94
67727;BME280;54525;55.680;37.540;2022-09-09T14:04:08;100438.78;;;19.16;40.12
67727;BME280;54525;55.680;37.540;2022-09-09T14:06:38;100441.47;;;19.16;39.86
67727;BME280;54525;55.680;37.540;2022-09-09T14:09:10;100436.97;;;19.16;40.80
67727;BME280;54525;55.680;37.540;2022-09-09T14:11:36;100441.47;;;19.16;40.55
67727;BME280;54525;55.680;37.540;2022-09-09T14:14:02;100439.66;;;19.16;39.76
67727;BME280;54525;55.680;37.540;2022-09-09T14:16:27;100440.47;;;19.17;39.43
67727;BME280;54525;55.680;37.540;2022-09-09T14:18:53;100444.84;;;19.18;40.43
67727;BME280;54525;55.680;37.540;2022-09-09T14:21:21;100448.38;;;19.18;40.05
67727;BME280;54525;55.680;37.540;2022-09-09T14:23:46;100442.16;;;19.18;39.61
67727;BME280;54525;55.680;37.540;2022-09-09T14:26:14;100439.47;;;19.18;39.28
67727;BME280;54525;55.680;37.540;2022-09-09T14:28:39;100442.00;;;19.19;39.95
67727;BME280;54525;55.680;37.540;2022-09-09T14:31:06;100447.34;;;19.19;39.79
67727;BME280;54525;55.680;37.540;2022-09-09T14:33:31;100444.69;;;19.19;39.91
67727;BME280;54525;55.680;37.540;2022-09-09T14:36:01;100443.03;;;19.18;40.09
67727;BME280;54525;55.680;37.540;2022-09-09T14:38:32;100437.50;;;19.20;40.62
67727;BME280;54525;55.680;37.540;2022-09-09T14:40:59;100440.34;;;19.18;40.40
67727;BME280;54525;55.680;37.540;2022-09-09T14:43:25;100440.34;;;19.18;40.14
67727;BME280;54525;55.680;37.540;2022-09-09T14:45:52;100439.47;;;19.18;40.36
67727;BME280;54525;55.680;37.540;2022-09-09T14:48:17;100435.81;;;19.19;40.08
67727;BME280;54525;55.680;37.540;2022-09-09T14:50:43;100438.47;;;19.19;40.34
67727;BME280;54525;55.680;37.540;2022-09-09T14:53:09;100436.63;;;19.19;40.59
67727;BME280;54525;55.680;37.540;2022-09-09T14:55:35;100440.34;;;19.18;40.17
67727;BME280;54525;55.680;37.540;2022-09-09T14:58:01;100438.66;;;19.17;39.93
67727;BME280;54525;55.680;37.540;2022-09-09T15:00:27;100438.47;;;19.19;40.29
67727;BME280;54525;55.680;37.540;2022-09-09T15:02:53;100435.81;;;19.19;40.26